Time;durP1;ratioP1;P1;durP2;ratioP2;P2;SDS_P1;SDS_P2;PMS_P1;PMS_P2;Temp;Humidity;BMP_temperature;BMP_pressure;BME280_temperature;BME280_humidity;BME280_pressure;Samples;Min_cycle;Max_cycle;Signal;HPM_P1;HPM_P2
2023/03/16 00:02:01;;;;;;;9.48;8.88;;;;;;;;;;4994744;28;20451;-49
2023/03/16 00:04:26;;;;;;;9.77;9.07;;;;;;;;;;4995081;28;20033;-50
2023/03/16 00:06:52;;;;;;;10.05;9.25;;;;;;;;;;4991456;28;20030;-50
2023/03/16 00:09:17;;;;;;;11.82;11.00;;;;;;;;;;4993694;28;20444;-49
2023/03/16 00:11:42;;;;;;;10.38;9.00;;;;;;;;;;4991578;28;20172;-51
2023/03/16 00:14:08;;;;;;;8.73;8.10;;;;;;;;;;4992311;28;20570;-51
2023/03/16 00:16:34;;;;;;;9.00;8.40;;;;;;;;;;4993690;28;20034;-48
2023/03/16 00:19:02;;;;;;;8.70;8.13;;;;;;;;;;4995319;28;20037;-49
2023/03/16 00:21:30;;;;;;;10.23;9.48;;;;;;;;;;4995043;28;20038;-50
2023/03/16 00:23:57;;;;;;;8.90;8.30;;;;;;;;;;4992335;28;20523;-51
2023/03/16 00:26:22;;;;;;;8.45;7.95;;;;;;;;;;4992887;28;20042;-49
2023/03/16 00:28:47;;;;;;;9.75;9.15;;;;;;;;;;4993016;28;20045;-50
2023/03/16 00:31:13;;;;;;;9.38;8.77;;;;;;;;;;4995505;28;20044;-48
2023/03/16 00:33:41;;;;;;;9.63;9.02;;;;;;;;;;4991130;28;20030;-49
2023/03/16 00:36:08;;;;;;;9.65;9.05;;;;;;;;;;4992222;28;20057;-48
2023/03/16 00:38:36;;;;;;;9.23;8.63;;;;;;;;;;4989709;28;20045;-47
2023/03/16 00:41:04;;;;;;;8.48;7.97;;;;;;;;;;4994469;28;20034;-49
2023/03/16 00:43:39;;;;;;;10.50;9.80;;;;;;;;;;4995645;28;20098;-47
2023/03/16 00:46:06;;;;;;;10.65;9.95;;;;;;;;;;4995522;28;20034;-52
2023/03/16 00:48:33;;;;;;;9.93;9.23;;;;;;;;;;4994768;28;20077;-51
2023/03/16 00:51:05;;;;;;;10.52;9.73;;;;;;;;;;4995877;28;20038;-48
2023/03/16 00:53:32;;;;;;;9.35;8.75;;;;;;;;;;4993887;28;20053;-50
2023/03/16 00:55:58;;;;;;;9.13;8.52;;;;;;;;;;4996282;28;20037;-50
2023/03/16 00:58:23;;;;;;;10.48;9.82;;;;;;;;;;4996974;28;20045;-49
2023/03/16 01:00:50;;;;;;;10.20;9.50;;;;;;;;;;4996717;28;20030;-51
2023/03/16 01:03:15;;;;;;;10.43;9.73;;;;;;;;;;4997457;28;20062;-52
2023/03/16 01:05:41;;;;;;;9.73;9.02;;;;;;;;;;4996001;28;20065;-50
2023/03/16 01:08:08;;;;;;;10.60;9.90;;;;;;;;;;4995292;28;20041;-50
2023/03/16 01:10:34;;;;;;;8.82;8.23;;;;;;;;;;4996606;28;20038;-48
2023/03/16 01:13:01;;;;;;;10.02;9.35;;;;;;;;;;4995125;28;20038;-52
2023/03/16 01:15:28;;;;;;;10.57;9.88;;;;;;;;;;4994645;28;20042;-50
2023/03/16 01:17:53;;;;;;;10.07;9.40;;;;;;;;;;4995901;28;20034;-52
2023/03/16 01:20:19;;;;;;;9.18;8.57;;;;;;;;;;4997113;28;20040;-51
2023/03/16 01:22:44;;;;;;;9.70;9.10;;;;;;;;;;4995257;28;20065;-52
2023/03/16 01:25:11;;;;;;;10.43;9.65;;;;;;;;;;4995132;28;20093;-50
2023/03/16 01:27:36;;;;;;;9.40;8.73;;;;;;;;;;4997493;28;20045;-48
2023/03/16 01:30:04;;;;;;;9.05;8.45;;;;;;;;;;4991403;28;20663;-47
2023/03/16 01:32:29;;;;;;;9.85;9.15;;;;;;;;;;4995873;28;20069;-49
2023/03/16 01:34:55;;;;;;;9.63;9.02;;;;;;;;;;4996930;28;20095;-51
2023/03/16 01:37:21;;;;;;;10.60;9.82;;;;;;;;;;4993864;28;20054;-51
2023/03/16 01:39:48;;;;;;;10.35;9.52;;;;;;;;;;4993794;28;20026;-51
2023/03/16 01:42:13;;;;;;;10.10;9.50;;;;;;;;;;4995615;28;20034;-49
2023/03/16 01:44:54;;;;;;;10.90;10.20;;;;;;;;;;4992625;28;20049;-51
2023/03/16 01:47:21;;;;;;;10.52;9.88;;;;;;;;;;4992808;28;20037;-50
2023/03/16 01:49:48;;;;;;;11.70;10.90;;;;;;;;;;4999052;28;20500;-50
2023/03/16 01:52:18;;;;;;;10.60;9.90;;;;;;;;;;4997622;28;20181;-48
2023/03/16 01:54:50;;;;;;;10.27;9.68;;;;;;;;;;4997335;28;20048;-49
2023/03/16 01:57:21;;;;;;;10.07;9.38;;;;;;;;;;4995768;28;20052;-50
2023/03/16 02:00:06;;;;;;;9.93;9.32;;;;;;;;;;4997302;28;20176;-48
2023/03/16 02:02:32;;;;;;;10.10;9.40;;;;;;;;;;4990668;28;20069;-51
2023/03/16 02:05:06;;;;;;;10.95;10.18;;;;;;;;;;4998138;28;20034;-52
2023/03/16 02:07:38;;;;;;;11.13;10.38;;;;;;;;;;4994275;28;20038;-51
2023/03/16 02:10:06;;;;;;;9.82;9.23;;;;;;;;;;4995429;28;20456;-49
2023/03/16 02:12:32;;;;;;;10.38;9.68;;;;;;;;;;4994456;28;20113;-52
2023/03/16 02:14:57;;;;;;;10.00;9.40;;;;;;;;;;4992630;28;20599;-50
2023/03/16 02:17:26;;;;;;;10.40;9.70;;;;;;;;;;4991508;28;20036;-49
2023/03/16 02:20:10;;;;;;;10.10;9.45;;;;;;;;;;4998254;28;20149;-53
2023/03/16 02:22:41;;;;;;;10.60;9.90;;;;;;;;;;4991834;28;20033;-48
2023/03/16 02:25:09;;;;;;;10.25;9.55;;;;;;;;;;4994185;28;20113;-49
2023/03/16 02:28:12;;;;;;;10.57;9.88;;;;;;;;;;4995700;28;20040;-51
2023/03/16 02:30:37;;;;;;;9.57;8.98;;;;;;;;;;4997083;28;20471;-50
2023/03/16 02:33:03;;;;;;;9.13;8.52;;;;;;;;;;4996917;28;20030;-50
2023/03/16 02:35:30;;;;;;;10.77;9.75;;;;;;;;;;4995382;28;20033;-52
2023/03/16 02:37:55;;;;;;;10.63;9.93;;;;;;;;;;4996572;28;20629;-49
2023/03/16 02:40:27;;;;;;;9.65;9.05;;;;;;;;;;4997724;28;20056;-50
2023/03/16 02:43:17;;;;;;;10.82;10.13;;;;;;;;;;4994027;28;20029;-49
2023/03/16 02:45:48;;;;;;;10.93;10.15;;;;;;;;;;4994556;28;20038;-48
2023/03/16 02:48:25;;;;;;;30.40;10.93;;;;;;;;;;4996061;28;20034;-53
2023/03/16 02:50:53;;;;;;;11.05;10.35;;;;;;;;;;4995506;28;20113;-50
2023/03/16 02:53:19;;;;;;;10.43;9.73;;;;;;;;;;4992089;28;20543;-49
2023/03/16 02:55:45;;;;;;;12.50;11.60;;;;;;;;;;4994134;28;20492;-52
2023/03/16 02:58:11;;;;;;;10.98;10.27;;;;;;;;;;4991588;28;20038;-52
2023/03/16 03:00:37;;;;;;;11.68;10.98;;;;;;;;;;4997603;28;20030;-49
2023/03/16 03:03:04;;;;;;;12.18;11.38;;;;;;;;;;4992989;28;20052;-49
2023/03/16 03:05:29;;;;;;;13.93;12.93;;;;;;;;;;4993330;28;20138;-52
2023/03/16 03:07:55;;;;;;;11.07;10.27;;;;;;;;;;5009665;28;20035;-49
2023/03/16 03:10:21;;;;;;;10.18;9.50;;;;;;;;;;4993600;28;20042;-48
2023/03/16 03:12:48;;;;;;;12.45;11.45;;;;;;;;;;4991313;28;20041;-49
2023/03/16 03:15:15;;;;;;;10.73;10.02;;;;;;;;;;4990960;28;20136;-49
2023/03/16 03:17:41;;;;;;;11.57;10.80;;;;;;;;;;4993546;28;20042;-51
2023/03/16 03:20:15;;;;;;;12.63;11.68;;;;;;;;;;4996018;28;20026;-53
2023/03/16 03:22:41;;;;;;;11.88;11.15;;;;;;;;;;4993625;28;20133;-49
2023/03/16 03:25:07;;;;;;;11.23;10.52;;;;;;;;;;4995534;28;20049;-49
2023/03/16 03:27:33;;;;;;;11.30;10.45;;;;;;;;;;4991519;28;20033;-51
2023/03/16 03:29:59;;;;;;;10.18;9.48;;;;;;;;;;4993794;28;20052;-48
2023/03/16 03:32:24;;;;;;;10.30;9.60;;;;;;;;;;4994266;28;20085;-49
2023/03/16 03:34:49;;;;;;;11.73;11.00;;;;;;;;;;4993083;28;20041;-49
2023/03/16 03:37:15;;;;;;;10.18;9.57;;;;;;;;;;4995525;28;20053;-48
2023/03/16 03:39:40;;;;;;;11.43;10.68;;;;;;;;;;4994099;28;20136;-50
2023/03/16 03:42:06;;;;;;;11.00;10.20;;;;;;;;;;4994632;28;20041;-49
2023/03/16 03:44:33;;;;;;;11.13;10.43;;;;;;;;;;4993275;28;20519;-49
2023/03/16 03:46:59;;;;;;;11.65;10.88;;;;;;;;;;4991433;28;20038;-48
2023/03/16 03:49:24;;;;;;;11.18;10.48;;;;;;;;;;4995643;28;20049;-49
2023/03/16 03:51:50;;;;;;;9.48;8.88;;;;;;;;;;4994618;28;20034;-50
2023/03/16 03:54:15;;;;;;;10.07;9.38;;;;;;;;;;4994057;28;20895;-50
2023/03/16 03:56:41;;;;;;;10.93;10.05;;;;;;;;;;4995693;28;20066;-52
2023/03/16 03:59:07;;;;;;;10.40;9.70;;;;;;;;;;4994417;28;20038;-51
2023/03/16 04:01:32;;;;;;;10.95;10.15;;;;;;;;;;4995341;28;20083;-51
2023/03/16 04:03:58;;;;;;;9.95;9.35;;;;;;;;;;4989616;28;20102;-50
2023/03/16 04:06:23;;;;;;;10.63;9.77;;;;;;;;;;4994171;28;20037;-52
2023/03/16 04:08:49;;;;;;;10.05;9.25;;;;;;;;;;4993368;28;20424;-49
2023/03/16 04:11:15;;;;;;;10.13;9.48;;;;;;;;;;4996015;28;20038;-51
2023/03/16 04:13:40;;;;;;;9.88;9.27;;;;;;;;;;4991308;28;20084;-50
2023/03/16 04:16:06;;;;;;;10.38;9.57;;;;;;;;;;4995474;28;20034;-49
2023/03/16 04:18:37;;;;;;;9.93;9.30;;;;;;;;;;4996620;28;20034;-50
2023/03/16 04:21:06;;;;;;;9.02;8.43;;;;;;;;;;5000075;28;20041;-48
2023/03/16 04:23:32;;;;;;;10.40;9.70;;;;;;;;;;4996459;28;20056;-51
2023/03/16 04:25:58;;;;;;;10.25;9.55;;;;;;;;;;4997729;28;20037;-52
2023/03/16 04:28:25;;;;;;;10.02;9.43;;;;;;;;;;5017205;28;20060;-48
2023/03/16 04:30:53;;;;;;;9.85;9.25;;;;;;;;;;5003391;28;20184;-51
2023/03/16 04:33:19;;;;;;;11.18;10.40;;;;;;;;;;5001020;28;20043;-49
2023/03/16 04:35:45;;;;;;;10.05;9.35;;;;;;;;;;4996028;28;20061;-50
2023/03/16 04:38:11;;;;;;;11.45;10.75;;;;;;;;;;5001425;28;20120;-52
2023/03/16 04:40:37;;;;;;;10.93;10.23;;;;;;;;;;4999248;28;20041;-51
2023/03/16 04:43:02;;;;;;;10.65;9.95;;;;;;;;;;4998519;28;20038;-48
2023/03/16 04:45:27;;;;;;;11.25;10.55;;;;;;;;;;4997790;28;20077;-49
2023/03/16 04:47:53;;;;;;;10.82;10.13;;;;;;;;;;5001570;28;20634;-49
2023/03/16 04:50:18;;;;;;;11.52;10.75;;;;;;;;;;5000813;28;20125;-53
2023/03/16 04:52:43;;;;;;;11.65;10.95;;;;;;;;;;4997867;28;20319;-51
2023/03/16 04:55:09;;;;;;;10.70;10.00;;;;;;;;;;4997609;28;20046;-51
2023/03/16 04:57:34;;;;;;;11.82;10.93;;;;;;;;;;4999572;28;20052;-52
2023/03/16 05:00:00;;;;;;;11.45;10.65;;;;;;;;;;4997548;28;20062;-51
2023/03/16 05:02:26;;;;;;;11.98;11.18;;;;;;;;;;4998247;28;20037;-52
2023/03/16 05:04:51;;;;;;;10.90;10.20;;;;;;;;;;4996155;28;20090;-51
2023/03/16 05:07:16;;;;;;;10.60;9.90;;;;;;;;;;4997071;28;20117;-51
2023/03/16 05:09:42;;;;;;;11.52;10.82;;;;;;;;;;4999026;28;20030;-52
2023/03/16 05:12:08;;;;;;;9.45;8.85;;;;;;;;;;4999993;28;20444;-52
2023/03/16 05:14:34;;;;;;;10.85;10.05;;;;;;;;;;4998348;28;20034;-52
2023/03/16 05:17:02;;;;;;;10.45;9.75;;;;;;;;;;4999485;28;20196;-48
2023/03/16 05:19:29;;;;;;;11.70;10.73;;;;;;;;;;4997949;28;20468;-49
2023/03/16 05:21:55;;;;;;;9.63;9.02;;;;;;;;;;4996061;28;20042;-52
2023/03/16 05:24:22;;;;;;;10.80;10.10;;;;;;;;;;5000036;28;20597;-53
2023/03/16 05:26:48;;;;;;;10.77;10.07;;;;;;;;;;4997678;28;20038;-51
2023/03/16 05:29:13;;;;;;;10.05;9.43;;;;;;;;;;5002453;28;20452;-52
2023/03/16 05:31:38;;;;;;;9.90;9.30;;;;;;;;;;4996592;28;20038;-52
2023/03/16 05:34:04;;;;;;;9.50;8.90;;;;;;;;;;5002224;28;20515;-51
2023/03/16 05:36:29;;;;;;;11.63;10.77;;;;;;;;;;4998742;28;20527;-51
2023/03/16 05:38:55;;;;;;;11.68;10.88;;;;;;;;;;4997326;28;20046;-51
2023/03/16 05:41:21;;;;;;;11.05;10.25;;;;;;;;;;4997077;28;20299;-51
2023/03/16 05:43:47;;;;;;;10.68;9.98;;;;;;;;;;4996214;28;20038;-55
2023/03/16 05:46:12;;;;;;;10.90;10.13;;;;;;;;;;4995785;28;20049;-49
2023/03/16 05:48:38;;;;;;;10.15;9.48;;;;;;;;;;4995886;28;20714;-51
2023/03/16 05:51:04;;;;;;;10.05;9.45;;;;;;;;;;4995261;28;20038;-53
2023/03/16 05:53:34;;;;;;;10.82;10.13;;;;;;;;;;4993023;28;20047;-54
2023/03/16 05:56:00;;;;;;;10.82;10.13;;;;;;;;;;4991351;28;20050;-50
2023/03/16 05:58:26;;;;;;;10.48;9.82;;;;;;;;;;4994961;28;20100;-50
2023/03/16 06:00:53;;;;;;;12.80;11.90;;;;;;;;;;4995327;28;20125;-53
2023/03/16 06:03:20;;;;;;;11.23;10.52;;;;;;;;;;4994789;28;20093;-53
2023/03/16 06:05:46;;;;;;;11.63;10.82;;;;;;;;;;4995113;28;20039;-54
2023/03/16 06:08:11;;;;;;;11.60;10.80;;;;;;;;;;4996177;28;20034;-53
2023/03/16 06:10:37;;;;;;;10.68;9.98;;;;;;;;;;4998826;28;20045;-52
2023/03/16 06:13:02;;;;;;;11.73;10.93;;;;;;;;;;4993300;28;20376;-51
2023/03/16 06:15:29;;;;;;;10.55;9.88;;;;;;;;;;5000694;28;20120;-50
2023/03/16 06:17:54;;;;;;;11.15;10.45;;;;;;;;;;4993872;28;20030;-48
2023/03/16 06:20:20;;;;;;;10.88;10.18;;;;;;;;;;4994690;28;20444;-52
2023/03/16 06:22:46;;;;;;;11.00;10.23;;;;;;;;;;4993797;28;20475;-52
2023/03/16 06:25:12;;;;;;;10.20;9.50;;;;;;;;;;4998638;28;20034;-49
2023/03/16 06:27:38;;;;;;;10.60;9.90;;;;;;;;;;4997097;28;20412;-51
2023/03/16 06:30:07;;;;;;;10.88;10.13;;;;;;;;;;4994807;28;20454;-49
2023/03/16 06:32:34;;;;;;;9.90;9.25;;;;;;;;;;4996197;28;20038;-48
2023/03/16 06:35:01;;;;;;;10.80;10.10;;;;;;;;;;4994915;28;20038;-54
2023/03/16 06:37:27;;;;;;;10.23;9.52;;;;;;;;;;4993016;28;20046;-52
2023/03/16 06:39:52;;;;;;;10.82;10.13;;;;;;;;;;5000301;28;20058;-51
2023/03/16 06:42:18;;;;;;;10.77;10.07;;;;;;;;;;4996102;28;20133;-51
2023/03/16 06:44:43;;;;;;;9.48;8.88;;;;;;;;;;5000580;28;20037;-47
2023/03/16 06:47:09;;;;;;;10.75;10.05;;;;;;;;;;4995183;28;20033;-51
2023/03/16 06:49:34;;;;;;;10.32;9.63;;;;;;;;;;4995967;28;20034;-50
2023/03/16 06:52:02;;;;;;;9.80;9.20;;;;;;;;;;4994711;28;20048;-52
2023/03/16 06:54:28;;;;;;;10.65;9.95;;;;;;;;;;4994661;28;20041;-47
2023/03/16 06:56:53;;;;;;;10.48;9.77;;;;;;;;;;4995509;28;20042;-59
2023/03/16 06:59:20;;;;;;;10.77;10.07;;;;;;;;;;4989863;28;20061;-59
2023/03/16 07:01:45;;;;;;;11.10;10.38;;;;;;;;;;4991433;28;20022;-59
2023/03/16 07:04:11;;;;;;;9.77;9.05;;;;;;;;;;4993914;28;20041;-59
2023/03/16 07:06:37;;;;;;;11.10;10.23;;;;;;;;;;4993928;28;20184;-59
2023/03/16 07:09:03;;;;;;;10.55;9.75;;;;;;;;;;4995453;28;20045;-59
2023/03/16 07:11:29;;;;;;;11.18;10.38;;;;;;;;;;4994317;28;20091;-59
2023/03/16 07:13:55;;;;;;;12.45;11.65;;;;;;;;;;4989620;28;20133;-59
2023/03/16 07:16:20;;;;;;;11.93;11.18;;;;;;;;;;4995655;28;20046;-58
2023/03/16 07:18:46;;;;;;;12.20;11.40;;;;;;;;;;4992825;28;20041;-58
2023/03/16 07:21:13;;;;;;;12.35;11.63;;;;;;;;;;4990388;28;20052;-58
2023/03/16 07:23:39;;;;;;;12.27;11.48;;;;;;;;;;5009564;28;20030;-58
2023/03/16 07:26:07;;;;;;;12.50;11.70;;;;;;;;;;4991808;28;20455;-59
2023/03/16 07:28:33;;;;;;;12.45;11.75;;;;;;;;;;4988441;28;20033;-57
2023/03/16 07:30:58;;;;;;;12.70;11.90;;;;;;;;;;4993356;28;20049;-57
2023/03/16 07:33:24;;;;;;;12.60;11.68;;;;;;;;;;4991386;28;20041;-56
2023/03/16 07:35:50;;;;;;;12.88;12.07;;;;;;;;;;4993261;28;20499;-57
2023/03/16 07:38:16;;;;;;;12.60;11.60;;;;;;;;;;4989425;28;20116;-56
2023/03/16 07:40:41;;;;;;;11.45;10.75;;;;;;;;;;4993454;28;20086;-57
2023/03/16 07:43:06;;;;;;;10.43;9.73;;;;;;;;;;4988411;28;21470;-57
2023/03/16 07:45:32;;;;;;;11.43;10.73;;;;;;;;;;4993256;28;20147;-57
2023/03/16 07:47:57;;;;;;;12.82;10.48;;;;;;;;;;4993419;28;20037;-57
2023/03/16 07:50:23;;;;;;;11.30;10.55;;;;;;;;;;4994270;28;20037;-56
2023/03/16 07:52:48;;;;;;;11.23;10.52;;;;;;;;;;4993010;28;20457;-57
2023/03/16 07:55:14;;;;;;;11.07;10.35;;;;;;;;;;4996788;28;20075;-57
2023/03/16 07:57:41;;;;;;;10.10;9.40;;;;;;;;;;4992506;28;20080;-56
2023/03/16 08:00:08;;;;;;;9.40;8.80;;;;;;;;;;4994673;28;20029;-56
2023/03/16 08:02:33;;;;;;;9.80;9.02;;;;;;;;;;4992900;28;20436;-55
2023/03/16 08:04:59;;;;;;;10.52;9.77;;;;;;;;;;4996695;28;20038;-56
2023/03/16 08:07:24;;;;;;;11.80;11.00;;;;;;;;;;4990769;28;20427;-57
2023/03/16 08:09:51;;;;;;;11.10;10.40;;;;;;;;;;4994394;28;20042;-57
2023/03/16 08:12:16;;;;;;;11.10;10.40;;;;;;;;;;4990140;28;20026;-56
2023/03/16 08:14:44;;;;;;;11.07;10.38;;;;;;;;;;4993153;28;20097;-57
2023/03/16 08:17:11;;;;;;;11.15;10.45;;;;;;;;;;4991367;28;20083;-56
2023/03/16 08:19:37;;;;;;;10.70;10.00;;;;;;;;;;4991746;28;20117;-57
2023/03/16 08:22:04;;;;;;;10.88;10.18;;;;;;;;;;4993188;28;20030;-58
2023/03/16 08:24:30;;;;;;;10.85;10.23;;;;;;;;;;4993565;28;20045;-57
2023/03/16 08:26:56;;;;;;;10.95;10.20;;;;;;;;;;4990646;28;20380;-58
2023/03/16 08:29:22;;;;;;;11.45;10.68;;;;;;;;;;4990869;28;20034;-57
2023/03/16 08:31:48;;;;;;;11.30;10.60;;;;;;;;;;4993585;28;20034;-59
2023/03/16 08:34:14;;;;;;;11.27;10.57;;;;;;;;;;4991024;28;20034;-51
2023/03/16 08:36:42;;;;;;;10.50;9.85;;;;;;;;;;4991497;28;20117;-49
2023/03/16 08:39:08;;;;;;;11.02;10.32;;;;;;;;;;4991367;28;20030;-49
2023/03/16 08:41:33;;;;;;;10.55;9.85;;;;;;;;;;4995407;28;20474;-50
2023/03/16 08:43:59;;;;;;;10.23;9.52;;;;;;;;;;4992361;28;20042;-60
2023/03/16 08:46:25;;;;;;;9.60;9.00;;;;;;;;;;4991504;28;20038;-59
2023/03/16 08:48:51;;;;;;;10.43;9.73;;;;;;;;;;4989747;28;20030;-60
2023/03/16 08:51:18;;;;;;;10.68;9.98;;;;;;;;;;4993653;28;20026;-59
2023/03/16 08:53:44;;;;;;;9.73;9.13;;;;;;;;;;4992735;28;20026;-60
2023/03/16 08:56:11;;;;;;;10.35;9.65;;;;;;;;;;4993158;28;20049;-58
2023/03/16 08:58:37;;;;;;;10.05;9.38;;;;;;;;;;4996221;28;20026;-59
2023/03/16 09:01:04;;;;;;;10.20;9.60;;;;;;;;;;4990418;28;20042;-59
2023/03/16 09:03:34;;;;;;;10.00;9.40;;;;;;;;;;4995664;28;20038;-59
2023/03/16 09:06:04;;;;;;;11.23;10.45;;;;;;;;;;4997609;28;20042;-59
2023/03/16 09:08:30;;;;;;;14.10;9.68;;;;;;;;;;4997476;28;20030;-50
2023/03/16 09:11:04;;;;;;;11.38;10.68;;;;;;;;;;4996400;28;20041;-52
2023/03/16 09:13:30;;;;;;;10.32;9.73;;;;;;;;;;4995720;28;20037;-49
2023/03/16 09:15:56;;;;;;;11.60;10.90;;;;;;;;;;4998334;28;20068;-51
2023/03/16 09:18:25;;;;;;;10.93;10.23;;;;;;;;;;4997496;28;20526;-53
2023/03/16 09:20:51;;;;;;;11.07;10.27;;;;;;;;;;5000530;28;20034;-51
2023/03/16 09:23:17;;;;;;;11.18;10.40;;;;;;;;;;4993378;28;20029;-59
2023/03/16 09:25:43;;;;;;;10.23;9.63;;;;;;;;;;4996712;28;20037;-52
2023/03/16 09:28:08;;;;;;;10.07;9.48;;;;;;;;;;4992850;28;20068;-49
2023/03/16 09:30:34;;;;;;;10.85;10.05;;;;;;;;;;4997422;28;20095;-50
2023/03/16 09:32:59;;;;;;;10.98;10.27;;;;;;;;;;4997284;28;20054;-49
2023/03/16 09:35:25;;;;;;;11.07;10.27;;;;;;;;;;4995583;28;20069;-51
2023/03/16 09:37:51;;;;;;;10.15;9.55;;;;;;;;;;4995561;28;20499;-52
2023/03/16 09:40:25;;;;;;;10.65;9.95;;;;;;;;;;4998253;28;20030;-52
2023/03/16 09:43:16;;;;;;;10.77;10.07;;;;;;;;;;4997207;28;20027;-49
2023/03/16 09:45:58;;;;;;;10.27;9.68;;;;;;;;;;4975588;28;20341;-51
2023/03/16 09:48:26;;;;;;;12.15;11.25;;;;;;;;;;4994218;28;20034;-50
2023/03/16 09:50:53;;;;;;;11.60;10.73;;;;;;;;;;4994659;28;20038;-50
2023/03/16 09:53:28;;;;;;;10.80;10.10;;;;;;;;;;4996923;28;20021;-52
2023/03/16 09:56:02;;;;;;;10.88;10.18;;;;;;;;;;4991606;28;20025;-51
2023/03/16 09:58:28;;;;;;;11.07;10.38;;;;;;;;;;4994982;28;20030;-50
2023/03/16 10:01:01;;;;;;;11.32;10.63;;;;;;;;;;4996840;28;20045;-50
2023/03/16 10:03:45;;;;;;;11.98;11.18;;;;;;;;;;4995532;28;20890;-52
2023/03/16 10:06:12;;;;;;;10.75;10.05;;;;;;;;;;4994321;28;20060;-51
2023/03/16 10:08:40;;;;;;;10.45;9.80;;;;;;;;;;4991768;28;20133;-53
2023/03/16 10:11:32;;;;;;;10.70;10.00;;;;;;;;;;4996057;28;20076;-52
2023/03/16 10:14:10;;;;;;;12.25;11.55;;;;;;;;;;4993305;28;20033;-49
2023/03/16 10:16:43;;;;;;;13.77;12.98;;;;;;;;;;4995575;28;20049;-52
2023/03/16 10:19:15;;;;;;;13.48;12.68;;;;;;;;;;4992747;28;20046;-50
2023/03/16 10:21:40;;;;;;;13.55;12.73;;;;;;;;;;4994372;28;20034;-52
2023/03/16 10:24:33;;;;;;;13.35;12.55;;;;;;;;;;4989113;28;20045;-51
2023/03/16 10:26:59;;;;;;;13.77;12.98;;;;;;;;;;4974903;28;20046;-50
2023/03/16 10:29:35;;;;;;;15.05;14.15;;;;;;;;;;4997357;28;20089;-50
2023/03/16 10:32:11;;;;;;;12.70;11.98;;;;;;;;;;4994632;28;20850;-51
2023/03/16 10:34:36;;;;;;;14.55;13.68;;;;;;;;;;4995011;28;20109;-53
2023/03/16 10:37:03;;;;;;;14.20;13.35;;;;;;;;;;4993234;28;20128;-52
2023/03/16 10:39:35;;;;;;;13.15;12.35;;;;;;;;;;4995560;28;20532;-53
2023/03/16 10:42:01;;;;;;;13.98;13.18;;;;;;;;;;4992149;28;20029;-52
2023/03/16 10:44:28;;;;;;;14.43;13.52;;;;;;;;;;4995345;28;20169;-53
2023/03/16 10:47:05;;;;;;;13.73;12.93;;;;;;;;;;4995967;28;20038;-50
2023/03/16 10:49:45;;;;;;;14.27;13.38;;;;;;;;;;4990814;28;20037;-52
2023/03/16 10:52:33;;;;;;;11.93;11.23;;;;;;;;;;4994211;28;20034;-52
2023/03/16 10:55:05;;;;;;;13.90;13.10;;;;;;;;;;4989160;28;20070;-51
2023/03/16 10:57:33;;;;;;;13.23;12.43;;;;;;;;;;4991220;28;20045;-52
2023/03/16 11:00:09;;;;;;;12.43;11.63;;;;;;;;;;4993973;28;20034;-53
2023/03/16 11:02:34;;;;;;;13.65;12.82;;;;;;;;;;4993419;28;20031;-53
2023/03/16 11:05:18;;;;;;;12.30;11.60;;;;;;;;;;4994611;28;20069;-51
2023/03/16 11:07:52;;;;;;;12.52;11.82;;;;;;;;;;4991933;28;20049;-50
2023/03/16 11:10:28;;;;;;;11.93;11.23;;;;;;;;;;4994412;28;20033;-59
2023/03/16 11:12:54;;;;;;;12.45;11.65;;;;;;;;;;4992611;28;20038;-61
2023/03/16 11:15:20;;;;;;;12.38;11.68;;;;;;;;;;4993543;28;20054;-52
2023/03/16 11:17:51;;;;;;;11.90;11.20;;;;;;;;;;4995690;28;20033;-51
2023/03/16 11:20:24;;;;;;;11.80;11.10;;;;;;;;;;4994481;28;20041;-50
2023/03/16 11:22:50;;;;;;;12.93;12.05;;;;;;;;;;4993369;28;20520;-50
2023/03/16 11:25:25;;;;;;;11.82;11.13;;;;;;;;;;4997987;28;20487;-50
2023/03/16 11:28:12;;;;;;;12.00;11.20;;;;;;;;;;4994377;28;20029;-49
2023/03/16 11:31:00;;;;;;;11.35;10.65;;;;;;;;;;4993455;28;20070;-52
2023/03/16 11:33:26;;;;;;;11.27;10.57;;;;;;;;;;4983955;28;20046;-50
2023/03/16 11:36:29;;;;;;;11.82;11.13;;;;;;;;;;5001137;28;20034;-53
2023/03/16 11:39:06;;;;;;;11.13;10.43;;;;;;;;;;4991985;28;20045;-53
2023/03/16 11:41:52;;;;;;;11.90;11.20;;;;;;;;;;4991876;28;20030;-49
2023/03/16 11:44:54;;;;;;;12.23;11.52;;;;;;;;;;5000615;28;20042;-50
2023/03/16 11:47:40;;;;;;;11.80;11.10;;;;;;;;;;4994254;28;20080;-49
2023/03/16 11:50:21;;;;;;;11.57;10.88;;;;;;;;;;4995730;28;20034;-50
2023/03/16 11:53:02;;;;;;;12.23;11.43;;;;;;;;;;4992726;28;20030;-50
2023/03/16 11:56:06;;;;;;;12.82;11.82;;;;;;;;;;4992773;28;20113;-51
2023/03/16 11:59:00;;;;;;;11.98;11.27;;;;;;;;;;4960184;28;20472;-52
2023/03/16 12:01:59;;;;;;;12.98;12.18;;;;;;;;;;4994048;28;20114;-52
2023/03/16 12:04:35;;;;;;;11.82;11.13;;;;;;;;;;4988121;28;20053;-51
2023/03/16 12:07:16;;;;;;;11.73;11.02;;;;;;;;;;4992374;28;20040;-52
2023/03/16 12:10:01;;;;;;;11.50;10.80;;;;;;;;;;4994840;28;20060;-53
2023/03/16 12:12:47;;;;;;;12.52;11.75;;;;;;;;;;4995340;28;20404;-51
2023/03/16 12:15:33;;;;;;;12.07;11.38;;;;;;;;;;4993264;28;20540;-50
2023/03/16 12:18:05;;;;;;;12.23;11.52;;;;;;;;;;4995454;28;20112;-50
2023/03/16 12:20:42;;;;;;;12.30;11.55;;;;;;;;;;4993945;28;20063;-52
2023/03/16 12:23:22;;;;;;;11.85;11.15;;;;;;;;;;4992843;28;20702;-54
2023/03/16 12:25:49;;;;;;;11.23;10.52;;;;;;;;;;4992393;28;20078;-51
2023/03/16 12:28:24;;;;;;;12.10;11.30;;;;;;;;;;4991504;28;20030;-48
2023/03/16 12:30:57;;;;;;;14.35;12.13;;;;;;;;;;4991138;28;20075;-52
2023/03/16 12:33:29;;;;;;;12.32;11.63;;;;;;;;;;4991609;28;20060;-50
2023/03/16 12:36:18;;;;;;;13.63;12.82;;;;;;;;;;4995310;28;20042;-53
2023/03/16 12:38:44;;;;;;;14.05;13.07;;;;;;;;;;4975471;28;20149;-47
2023/03/16 12:41:33;;;;;;;11.98;11.27;;;;;;;;;;4999324;28;20098;-52
2023/03/16 12:44:17;;;;;;;12.32;11.63;;;;;;;;;;5002707;28;20562;-58
2023/03/16 12:46:58;;;;;;;13.35;12.55;;;;;;;;;;5000785;28;20096;-59
2023/03/16 12:49:25;;;;;;;13.88;13.07;;;;;;;;;;4992224;28;20512;-58
2023/03/16 12:52:06;;;;;;;14.05;13.23;;;;;;;;;;4999160;28;20426;-59
2023/03/16 12:54:32;;;;;;;;;;;;;;;;;;4999469;28;20038;-50
2023/03/16 12:57:07;;;;;;;12.63;11.90;;;;;;;;;;4999591;28;19913;-52
2023/03/16 12:59:41;;;;;;;14.10;13.30;;;;;;;;;;4997702;28;20034;-52
2023/03/16 13:02:18;;;;;;;14.18;13.38;;;;;;;;;;4996243;28;20038;-51
2023/03/16 13:04:48;;;;;;;14.95;14.13;;;;;;;;;;4996841;28;20061;-49
2023/03/16 13:07:20;;;;;;;16.58;15.60;;;;;;;;;;4995152;28;20517;-49
2023/03/16 13:10:08;;;;;;;16.38;15.48;;;;;;;;;;4994281;28;20092;-51
2023/03/16 13:12:37;;;;;;;17.55;16.55;;;;;;;;;;4999434;28;20046;-49
2023/03/16 13:15:26;;;;;;;16.60;15.70;;;;;;;;;;4999953;28;20033;-51
2023/03/16 13:18:04;;;;;;;15.65;14.75;;;;;;;;;;4997794;28;20034;-52
2023/03/16 13:20:31;;;;;;;15.82;14.82;;;;;;;;;;4998734;28;20038;-51
2023/03/16 13:23:09;;;;;;;15.73;14.82;;;;;;;;;;4998883;28;20041;-59
2023/03/16 13:25:41;;;;;;;17.48;16.17;;;;;;;;;;4995207;28;20049;-59
2023/03/16 13:28:12;;;;;;;20.63;19.42;;;;;;;;;;4995187;28;20050;-59
2023/03/16 13:30:43;;;;;;;15.18;14.13;;;;;;;;;;4997871;28;20034;-51
2023/03/16 13:33:19;;;;;;;17.98;16.98;;;;;;;;;;4997792;28;20034;-52
2023/03/16 13:35:46;;;;;;;18.23;17.23;;;;;;;;;;4991552;28;20042;-50
2023/03/16 13:38:15;;;;;;;16.83;15.93;;;;;;;;;;4992267;28;20041;-53
2023/03/16 13:40:50;;;;;;;18.25;17.23;;;;;;;;;;4994373;28;20022;-49
2023/03/16 13:43:18;;;;;;;16.75;15.85;;;;;;;;;;4993833;28;20034;-52
2023/03/16 13:45:43;;;;;;;16.38;15.48;;;;;;;;;;4993982;28;20629;-51
2023/03/16 13:48:13;;;;;;;18.88;17.88;;;;;;;;;;4995709;28;20030;-53
2023/03/16 13:50:43;;;;;;;18.58;17.48;;;;;;;;;;4998535;28;20034;-52
2023/03/16 13:53:23;;;;;;;16.33;15.43;;;;;;;;;;4994618;28;20054;-58
2023/03/16 13:55:51;;;;;;;14.15;13.35;;;;;;;;;;5011792;28;20037;-59
2023/03/16 13:58:24;;;;;;;13.88;13.07;;;;;;;;;;4987625;28;20137;-58
2023/03/16 14:00:54;;;;;;;13.98;13.18;;;;;;;;;;4994303;28;20046;-59
2023/03/16 14:03:21;;;;;;;14.40;13.60;;;;;;;;;;4997826;28;20038;-58
2023/03/16 14:05:47;;;;;;;15.35;14.45;;;;;;;;;;4996890;28;20037;-52
2023/03/16 14:08:18;;;;;;;13.45;12.65;;;;;;;;;;4994334;28;20029;-52
2023/03/16 14:10:44;;;;;;;14.73;13.82;;;;;;;;;;4997237;28;20095;-50
2023/03/16 14:13:31;;;;;;;15.13;14.25;;;;;;;;;;4996698;28;20129;-51
2023/03/16 14:16:00;;;;;;;14.48;13.68;;;;;;;;;;4997456;28;20033;-58
2023/03/16 14:18:38;;;;;;;14.05;13.25;;;;;;;;;;4993453;28;20141;-58
2023/03/16 14:21:07;;;;;;;13.20;12.40;;;;;;;;;;4994745;28;20045;-58
2023/03/16 14:23:36;;;;;;;14.07;13.27;;;;;;;;;;4992910;28;20061;-58
2023/03/16 14:26:04;;;;;;;12.70;11.90;;;;;;;;;;4997694;28;20117;-58
2023/03/16 14:28:31;;;;;;;14.10;13.30;;;;;;;;;;4993215;28;20034;-58
2023/03/16 14:31:04;;;;;;;15.20;14.30;;;;;;;;;;4993244;28;20375;-58
2023/03/16 14:33:38;;;;;;;13.70;12.90;;;;;;;;;;4996000;28;20034;-58
2023/03/16 14:36:16;;;;;;;15.20;14.13;;;;;;;;;;4995082;28;20163;-58
2023/03/16 14:38:44;;;;;;;13.63;12.82;;;;;;;;;;4991996;28;20038;-59